createdAt,value
2022-10-11T00:00:22.011Z,2.40
2022-10-11T00:01:21.350Z,2.20
2022-10-11T00:02:21.377Z,2.30
2022-10-11T00:03:21.188Z,2.40
2022-10-11T00:04:21.501Z,2.50
2022-10-11T00:05:21.918Z,2.60
2022-10-11T00:06:21.286Z,2.40
2022-10-11T00:07:21.177Z,2.30
2022-10-11T00:08:21.284Z,2.40
2022-10-11T00:09:21.784Z,2.30
2022-10-11T00:10:22.107Z,2.50
2022-10-11T00:11:20.992Z,2.60
2022-10-11T00:12:21.927Z,2.60
2022-10-11T00:13:20.988Z,2.50
2022-10-11T00:14:21.758Z,2.50
2022-10-11T00:15:21.367Z,2.30
2022-10-11T00:16:22.014Z,2.60
2022-10-11T00:17:20.930Z,2.60
2022-10-11T00:18:21.669Z,2.70
2022-10-11T00:19:21.618Z,2.70
2022-10-11T00:20:22.807Z,2.70
2022-10-11T00:21:21.518Z,2.50
2022-10-11T00:22:21.867Z,2.50
2022-10-11T00:23:21.534Z,2.70
2022-10-11T00:24:21.599Z,2.50
2022-10-11T00:25:20.828Z,2.80
2022-10-11T00:26:20.886Z,2.50
2022-10-11T00:27:21.546Z,2.70
2022-10-11T00:28:21.088Z,2.40
2022-10-11T00:29:20.768Z,2.80
2022-10-11T00:30:21.711Z,2.40
2022-10-11T00:31:21.438Z,2.40
2022-10-11T00:32:21.045Z,2.70
2022-10-11T00:33:20.730Z,2.50
2022-10-11T00:34:20.988Z,2.80
2022-10-11T00:35:20.716Z,2.70
2022-10-11T00:36:23.009Z,2.60
2022-10-11T00:37:20.648Z,2.80
2022-10-11T00:38:21.607Z,2.80
2022-10-11T00:39:20.628Z,2.60
2022-10-11T00:40:20.839Z,2.80
2022-10-11T00:41:20.623Z,2.50
2022-10-11T00:42:21.718Z,2.80
2022-10-11T00:43:20.548Z,2.80
2022-10-11T00:44:20.689Z,2.80
2022-10-11T00:45:20.560Z,2.50
2022-10-11T00:46:20.737Z,2.30
2022-10-11T00:47:20.529Z,2.70
2022-10-11T00:48:21.874Z,2.40
2022-10-11T00:49:20.508Z,2.40
2022-10-11T00:50:20.706Z,2.30
2022-10-11T00:51:21.107Z,2.40
2022-10-11T00:52:21.450Z,2.60
2022-10-11T00:53:21.147Z,2.60
2022-10-11T00:54:23.349Z,2.60
2022-10-11T00:55:21.227Z,2.60
2022-10-11T00:56:21.207Z,2.50
2022-10-11T00:57:21.100Z,2.50
2022-10-11T00:58:21.357Z,2.60
2022-10-11T00:59:21.047Z,2.40
2022-10-11T01:00:21.125Z,2.50
2022-10-11T01:01:20.690Z,2.50
2022-10-11T01:02:20.537Z,2.40
2022-10-11T01:03:20.349Z,2.60
2022-10-11T01:04:22.837Z,2.50
2022-10-11T01:05:29.894Z,2.60
2022-10-11T01:06:21.968Z,2.70
2022-10-11T01:07:41.979Z,2.50
2022-10-11T01:08:20.877Z,2.80
2022-10-11T01:09:21.018Z,2.50
2022-10-11T01:10:21.934Z,2.70
2022-10-11T01:11:21.167Z,2.50
2022-10-11T01:12:20.242Z,2.60
2022-10-11T01:13:23.228Z,2.40
2022-10-11T01:14:20.797Z,2.60
2022-10-11T01:15:21.229Z,2.40
2022-10-11T01:16:20.158Z,2.60
2022-10-11T01:17:42.010Z,2.50
2022-10-11T01:18:20.788Z,2.30
2022-10-11T01:19:20.277Z,2.60
2022-10-11T01:20:20.798Z,2.50
2022-10-11T01:21:20.898Z,2.20
2022-10-11T01:22:20.968Z,2.50
2022-10-11T01:23:42.003Z,2.90
2022-10-11T01:24:20.847Z,2.60
2022-10-11T01:25:20.890Z,2.50
2022-10-11T01:26:20.698Z,2.90
2022-10-11T01:27:20.837Z,2.60
2022-10-11T01:28:20.958Z,2.80
2022-10-11T01:29:20.137Z,2.60
2022-10-11T01:30:19.957Z,2.50
2022-10-11T01:31:20.318Z,2.40
2022-10-11T01:32:20.237Z,2.40
2022-10-11T01:33:20.109Z,2.80
2022-10-11T01:34:19.928Z,2.50
2022-10-11T01:35:40.998Z,2.80
2022-10-11T01:36:19.899Z,2.50
2022-10-11T01:37:21.741Z,2.70
2022-10-11T01:38:19.969Z,2.60
2022-10-11T01:39:20.020Z,2.70
2022-10-11T01:40:20.708Z,2.30
2022-10-11T01:41:41.607Z,2.50
2022-10-11T01:42:22.248Z,2.80
2022-10-11T01:43:20.577Z,2.60
2022-10-11T01:44:20.428Z,2.80
2022-10-11T01:45:41.689Z,2.30
2022-10-11T01:46:19.729Z,2.50
2022-10-11T01:48:29.939Z,2.40
2022-10-11T01:49:29.610Z,2.40
2022-10-11T01:50:29.720Z,2.60
2022-10-11T01:51:29.830Z,2.50
2022-10-11T01:52:29.740Z,2.70
2022-10-11T01:53:29.707Z,2.40
2022-10-11T01:54:44.341Z,2.80
2022-10-11T01:55:31.759Z,2.70
2022-10-11T01:56:30.230Z,2.90
2022-10-11T01:57:29.867Z,2.70
2022-10-11T01:58:29.567Z,3.20
2022-10-11T01:59:29.619Z,3.00
2022-10-11T02:00:29.546Z,3.10
2022-10-11T02:01:29.679Z,3.00
2022-10-11T02:02:28.770Z,3.30
2022-10-11T02:03:29.729Z,3.10
2022-10-11T02:04:29.445Z,2.80
2022-10-11T02:05:51.461Z,2.80
2022-10-11T02:06:29.528Z,2.90
2022-10-11T02:07:29.465Z,2.90
2022-10-11T02:08:29.358Z,2.90
2022-10-11T02:09:29.719Z,2.70
2022-10-11T02:10:29.379Z,3.00
2022-10-11T02:11:29.529Z,2.60
2022-10-11T02:12:29.340Z,2.90
2022-10-11T02:13:30.408Z,2.70
2022-10-11T02:14:29.359Z,2.90
2022-10-11T02:15:29.597Z,3.00
2022-10-11T02:16:29.285Z,2.70
2022-10-11T02:17:31.790Z,3.00
2022-10-11T02:18:29.277Z,2.80
2022-10-11T02:19:29.276Z,2.70
2022-10-11T02:20:29.187Z,2.80
2022-10-11T02:21:29.529Z,2.80
2022-10-11T02:22:29.240Z,2.80
2022-10-11T02:23:29.357Z,2.60
2022-10-11T02:24:29.129Z,3.00
2022-10-11T02:25:29.279Z,2.90
2022-10-11T02:26:28.455Z,2.90
2022-10-11T02:27:29.648Z,3.00
2022-10-11T02:28:29.125Z,2.60
2022-10-11T02:29:29.268Z,2.50
2022-10-11T02:30:29.098Z,2.80
2022-10-11T02:31:29.189Z,2.50
2022-10-11T02:32:29.039Z,2.70
2022-10-11T02:33:28.738Z,2.60
2022-10-11T02:34:28.386Z,2.90
2022-10-11T02:35:29.228Z,2.60
2022-10-11T02:36:28.413Z,2.80
2022-10-11T02:37:30.578Z,2.80
2022-10-11T02:38:29.091Z,2.60
2022-10-11T02:39:29.200Z,2.90
2022-10-11T02:40:28.328Z,2.80
2022-10-11T02:41:28.520Z,2.60
2022-10-11T02:42:28.389Z,2.70
2022-10-11T02:43:49.478Z,3.00
2022-10-11T02:44:28.306Z,2.60
2022-10-11T02:45:28.498Z,3.00
2022-10-11T02:46:28.189Z,2.60
2022-10-11T02:47:28.389Z,3.10
2022-10-11T02:48:28.205Z,2.70
2022-10-11T02:49:28.348Z,2.70
2022-10-11T02:50:28.149Z,2.80
2022-10-11T02:51:28.269Z,2.50
2022-10-11T02:52:28.169Z,2.70
2022-10-11T02:53:29.039Z,2.60
2022-10-11T02:54:28.195Z,3.00
2022-10-11T02:55:28.280Z,2.70
2022-10-11T02:56:28.129Z,2.50
2022-10-11T02:57:28.278Z,3.10
2022-10-11T02:58:28.042Z,2.80
2022-10-11T02:59:28.809Z,2.70
2022-10-11T03:00:28.708Z,2.80
2022-10-11T03:01:28.824Z,2.80
2022-10-11T03:02:28.017Z,2.70
2022-10-11T03:03:28.187Z,2.80
2022-10-11T03:04:28.669Z,2.70
2022-10-11T03:05:28.200Z,2.80
2022-10-11T03:06:27.958Z,2.80
2022-10-11T03:07:28.938Z,2.90
2022-10-11T03:08:28.559Z,2.90
2022-10-11T03:09:29.199Z,2.60
2022-10-11T03:10:28.569Z,2.90
2022-10-11T03:11:28.730Z,3.00
2022-10-11T03:12:28.649Z,2.70
2022-10-11T03:13:28.802Z,2.80
2022-10-11T03:14:28.488Z,2.90
2022-10-11T03:15:28.787Z,2.80
2022-10-11T03:16:27.806Z,2.70
2022-10-11T03:17:36.707Z,2.90
2022-10-11T03:18:29.453Z,2.70
2022-10-11T03:19:28.649Z,2.50
2022-10-11T03:20:28.468Z,2.70
2022-10-11T03:21:28.780Z,3.10
2022-10-11T03:22:27.709Z,2.70
2022-10-11T03:23:28.688Z,2.90
2022-10-11T03:24:28.410Z,3.00
2022-10-11T03:25:28.488Z,2.80
2022-10-11T03:26:28.369Z,2.70
2022-10-11T03:27:28.718Z,3.00
2022-10-11T03:28:28.368Z,2.60
2022-10-11T03:29:28.467Z,2.90
2022-10-11T03:30:28.317Z,2.90
2022-10-11T03:31:28.927Z,3.00
2022-10-11T03:32:28.248Z,3.00
2022-10-11T03:33:27.698Z,3.20
2022-10-11T03:34:28.247Z,2.90
2022-10-11T03:35:30.326Z,2.80
2022-10-11T03:36:28.237Z,2.60
2022-10-11T03:37:29.680Z,2.60
2022-10-11T03:38:27.607Z,3.10
2022-10-11T03:39:27.758Z,2.90
2022-10-11T03:40:27.679Z,2.80
2022-10-11T03:41:27.899Z,3.30
2022-10-11T03:42:27.468Z,2.70
2022-10-11T03:43:27.613Z,2.80
2022-10-11T03:44:27.420Z,2.60
2022-10-11T03:45:29.552Z,2.90
2022-10-11T03:46:27.629Z,3.00
2022-10-11T03:47:28.279Z,2.90
2022-10-11T03:48:27.407Z,3.10
2022-10-11T03:49:27.649Z,3.20
2022-10-11T03:50:27.329Z,3.00
2022-10-11T03:51:28.430Z,3.10
2022-10-11T03:52:27.329Z,3.00
2022-10-11T03:53:27.398Z,3.00
2022-10-11T03:54:27.308Z,3.00
2022-10-11T03:55:27.418Z,2.80
2022-10-11T03:56:27.279Z,2.90
2022-10-11T03:57:29.488Z,3.20
2022-10-11T03:58:27.228Z,3.10
2022-10-11T03:59:29.268Z,3.00
2022-10-11T04:00:27.229Z,2.90
2022-10-11T04:01:28.142Z,2.90
2022-10-11T04:02:27.898Z,3.00
2022-10-11T04:03:28.368Z,2.90
2022-10-11T04:04:27.938Z,3.00
2022-10-11T04:05:29.019Z,2.70
2022-10-11T04:06:27.850Z,3.00
2022-10-11T04:07:28.029Z,2.90
2022-10-11T04:08:27.749Z,2.80
2022-10-11T04:09:32.838Z,2.90
2022-10-11T04:10:27.489Z,2.80
2022-10-11T04:11:27.237Z,3.10
2022-10-11T04:12:27.749Z,3.00
2022-10-11T04:13:27.939Z,3.10
2022-10-11T04:14:27.680Z,3.00
2022-10-11T04:15:27.227Z,3.10
2022-10-11T04:16:28.841Z,3.00
2022-10-11T04:17:27.117Z,3.00
2022-10-11T04:18:27.039Z,2.90
2022-10-11T04:19:27.041Z,2.90
2022-10-11T04:20:26.947Z,2.60
2022-10-11T04:21:28.016Z,3.30
2022-10-11T04:22:27.618Z,3.00
2022-10-11T04:23:27.019Z,2.70
2022-10-11T04:24:27.667Z,2.90
2022-10-11T04:25:27.260Z,2.80
2022-10-11T04:26:29.168Z,2.90
2022-10-11T04:27:31.228Z,2.60
2022-10-11T04:28:26.896Z,2.90
2022-10-11T04:29:32.595Z,3.10
2022-10-11T04:30:37.848Z,2.80
2022-10-11T04:31:29.565Z,2.80
2022-10-11T04:32:26.788Z,2.90
2022-10-11T04:33:26.973Z,2.80
2022-10-11T04:34:26.778Z,3.10
2022-10-11T04:35:27.635Z,3.00
2022-10-11T04:36:27.449Z,2.80
2022-10-11T04:37:26.893Z,2.80
2022-10-11T04:38:27.369Z,3.20
2022-10-11T04:39:29.349Z,2.60
2022-10-11T04:40:26.768Z,2.80
2022-10-11T04:41:26.839Z,2.80
2022-10-11T04:42:27.359Z,3.00
2022-10-11T04:43:28.399Z,3.00
2022-10-11T04:44:27.179Z,2.80
2022-10-11T04:45:26.939Z,2.90
2022-10-11T04:46:26.781Z,2.80
2022-10-11T04:47:26.890Z,3.00
2022-10-11T04:48:26.769Z,2.90
2022-10-11T04:49:26.781Z,2.90
2022-10-11T04:50:26.819Z,2.90
2022-10-11T04:51:29.069Z,3.10
2022-10-11T04:52:26.677Z,2.90
2022-10-11T04:53:26.826Z,2.90
2022-10-11T04:54:26.508Z,2.80
2022-10-11T04:55:26.989Z,3.20
2022-10-11T04:56:26.700Z,2.90
2022-10-11T04:57:27.721Z,3.10
2022-10-11T04:58:27.809Z,2.90
2022-10-11T04:59:26.719Z,2.90
2022-10-11T05:00:26.739Z,3.10
2022-10-11T05:01:27.477Z,2.70
2022-10-11T05:02:26.458Z,2.80
2022-10-11T05:03:26.579Z,2.70
2022-10-11T05:04:26.368Z,3.10
2022-10-11T05:05:26.488Z,3.40
2022-10-11T05:06:27.087Z,3.30
2022-10-11T05:07:27.209Z,2.90
2022-10-11T05:08:26.970Z,3.00
2022-10-11T05:09:26.951Z,3.20
2022-10-11T05:10:26.275Z,2.80
2022-10-11T05:11:26.541Z,3.10
2022-10-11T05:12:26.339Z,2.80
2022-10-11T05:13:26.819Z,2.80
2022-10-11T05:14:26.267Z,2.70
2022-10-11T05:15:26.308Z,2.90
2022-10-11T05:16:26.380Z,3.20
2022-10-11T05:17:26.396Z,3.10
2022-10-11T05:18:26.237Z,2.90
2022-10-11T05:19:28.498Z,2.80
2022-10-11T05:20:26.216Z,3.50
2022-10-11T05:21:26.329Z,3.10
2022-10-11T05:22:26.159Z,3.00
2022-10-11T05:23:26.280Z,2.80
2022-10-11T05:24:26.197Z,3.00
2022-10-11T05:25:26.449Z,3.30
2022-10-11T05:26:26.228Z,2.90
2022-10-11T05:27:26.263Z,2.80
2022-10-11T05:28:26.355Z,3.10
2022-10-11T05:29:32.650Z,3.10
2022-10-11T05:30:30.699Z,3.10
2022-10-11T05:31:26.118Z,3.10
2022-10-11T05:32:28.169Z,3.00
2022-10-11T05:33:26.060Z,3.20
2022-10-11T05:34:26.810Z,3.00
2022-10-11T05:35:26.637Z,2.80
2022-10-11T05:36:26.059Z,3.00
2022-10-11T05:37:25.929Z,3.00
2022-10-11T05:38:25.988Z,2.90
2022-10-11T05:39:26.790Z,2.90
2022-10-11T05:40:26.456Z,3.10
2022-10-11T05:41:25.897Z,3.20
2022-10-11T05:42:25.949Z,3.30
2022-10-11T05:43:25.866Z,2.90
2022-10-11T05:44:26.638Z,2.70
2022-10-11T05:45:25.856Z,3.10
2022-10-11T05:46:26.719Z,2.80
2022-10-11T05:47:25.790Z,2.70
2022-10-11T05:48:27.940Z,2.90
2022-10-11T05:49:26.458Z,2.90
2022-10-11T05:50:26.546Z,2.80
2022-10-11T05:51:25.779Z,3.20
2022-10-11T05:52:28.060Z,3.10
2022-10-11T05:53:26.351Z,3.10
2022-10-11T05:54:26.036Z,2.90
2022-10-11T05:55:25.909Z,3.30
2022-10-11T05:56:25.914Z,3.00
2022-10-11T05:57:25.860Z,3.20
2022-10-11T05:58:26.828Z,3.10
2022-10-11T05:59:25.758Z,3.40
2022-10-11T06:00:25.890Z,3.20
2022-10-11T06:01:25.765Z,3.20
2022-10-11T06:02:26.109Z,2.80
2022-10-11T06:03:25.812Z,3.20
2022-10-11T06:04:28.228Z,3.30
2022-10-11T06:05:25.560Z,2.90
2022-10-11T06:06:25.708Z,3.20
2022-10-11T06:07:25.537Z,3.20
2022-10-11T06:08:28.019Z,3.10
2022-10-11T06:09:26.909Z,3.10
2022-10-11T06:10:25.658Z,3.20
2022-10-11T06:11:25.467Z,3.00
2022-10-11T06:12:25.579Z,3.40
2022-10-11T06:13:25.469Z,3.00
2022-10-11T06:14:25.628Z,3.30
2022-10-11T06:15:26.542Z,3.20
2022-10-11T06:16:25.558Z,3.70
2022-10-11T06:17:25.538Z,3.10
2022-10-11T06:18:25.509Z,3.10
2022-10-11T06:19:25.456Z,3.40
2022-10-11T06:20:25.622Z,3.00
2022-10-11T06:21:25.458Z,3.10
2022-10-11T06:22:25.627Z,3.20
2022-10-11T06:23:25.519Z,3.50
2022-10-11T06:24:25.471Z,3.30
2022-10-11T06:25:25.579Z,3.40
2022-10-11T06:26:25.479Z,3.40
2022-10-11T06:27:25.441Z,3.30
2022-10-11T06:28:26.224Z,3.70
2022-10-11T06:29:25.990Z,3.30
2022-10-11T06:30:26.629Z,3.50
2022-10-11T06:31:58.549Z,3.50
2022-10-11T06:33:34.650Z,3.20
2022-10-11T06:34:34.541Z,3.40
2022-10-11T06:35:37.131Z,3.20
2022-10-11T06:36:35.560Z,3.40
2022-10-11T06:37:34.752Z,3.40
2022-10-11T06:38:34.531Z,3.20
2022-10-11T06:39:34.559Z,3.60
2022-10-11T06:40:34.471Z,3.40
2022-10-11T06:41:34.898Z,3.30
2022-10-11T06:42:34.732Z,3.30
2022-10-11T06:43:34.515Z,3.60
2022-10-11T06:44:34.451Z,3.50
2022-10-11T06:45:34.911Z,3.70
2022-10-11T06:46:34.810Z,3.60
2022-10-11T06:47:34.370Z,3.70
2022-10-11T06:48:35.762Z,3.80
2022-10-11T06:49:34.412Z,3.90
2022-10-11T06:50:57.999Z,4.10
2022-10-11T06:51:35.422Z,3.70
2022-10-11T06:52:34.781Z,3.70
2022-10-11T06:53:34.480Z,4.20
2022-10-11T06:54:34.563Z,4.70
2022-10-11T06:55:34.863Z,4.80
2022-10-11T06:56:34.521Z,4.60
2022-10-11T06:57:34.603Z,4.60
2022-10-11T06:58:34.530Z,4.50
2022-10-11T06:59:36.952Z,4.40
2022-10-11T07:00:34.542Z,4.20
2022-10-11T07:01:41.920Z,4.30
2022-10-11T07:02:34.445Z,4.60
2022-10-11T07:03:34.502Z,4.40
2022-10-11T07:04:36.062Z,4.40
2022-10-11T07:05:35.032Z,4.30
2022-10-11T07:06:35.810Z,4.70
2022-10-11T07:07:34.528Z,4.60
2022-10-11T07:08:34.422Z,5.10
2022-10-11T07:09:36.482Z,4.30
2022-10-11T07:10:35.047Z,4.50
2022-10-11T07:11:35.130Z,4.10
2022-10-11T07:12:34.460Z,4.40
2022-10-11T07:13:34.502Z,4.30
2022-10-11T07:14:34.152Z,4.10
2022-10-11T07:15:34.367Z,4.00
2022-10-11T07:16:34.040Z,4.20
2022-10-11T07:17:34.033Z,3.90
2022-10-11T07:18:34.734Z,4.10
2022-10-11T07:19:34.174Z,4.10
2022-10-11T07:20:37.051Z,4.20
2022-10-11T07:21:34.179Z,4.20
2022-10-11T07:22:33.943Z,4.50
2022-10-11T07:23:39.057Z,4.30
2022-10-11T07:24:35.892Z,4.80
2022-10-11T07:25:36.133Z,5.20
2022-10-11T07:26:38.907Z,4.40
2022-10-11T07:27:36.296Z,4.50
2022-10-11T07:28:33.885Z,4.90
2022-10-11T07:29:33.844Z,4.80
2022-10-11T07:30:33.801Z,4.90
2022-10-11T07:31:35.000Z,4.80
2022-10-11T07:32:34.443Z,4.40
2022-10-11T07:33:33.770Z,4.90
2022-10-11T07:34:33.902Z,4.70
2022-10-11T07:35:34.558Z,4.80
2022-10-11T07:36:33.852Z,5.00
2022-10-11T07:37:41.462Z,4.40
2022-10-11T07:38:35.061Z,5.90
2022-10-11T07:39:33.802Z,4.70
2022-10-11T07:40:33.864Z,4.20
2022-10-11T07:41:33.737Z,4.00
2022-10-11T07:42:33.756Z,4.50
2022-10-11T07:43:33.747Z,4.60
2022-10-11T07:44:33.701Z,4.20
2022-10-11T07:45:33.864Z,4.70
2022-10-11T07:46:34.191Z,4.40
2022-10-11T07:47:33.652Z,4.50
2022-10-11T07:48:33.684Z,4.20
2022-10-11T07:49:33.862Z,4.40
2022-10-11T07:50:33.665Z,4.10
2022-10-11T07:51:33.831Z,4.50
2022-10-11T07:52:33.652Z,4.30
2022-10-11T07:53:33.750Z,4.20
2022-10-11T07:54:33.686Z,4.50
2022-10-11T07:55:33.741Z,4.20
2022-10-11T07:56:33.572Z,4.50
2022-10-11T07:57:33.532Z,4.70
2022-10-11T07:58:33.713Z,4.60
2022-10-11T07:59:33.462Z,4.70
2022-10-11T08:00:33.369Z,4.50
2022-10-11T08:01:33.510Z,4.30
2022-10-11T08:02:33.424Z,4.50
2022-10-11T08:03:34.081Z,4.10
2022-10-11T08:04:33.394Z,4.30
2022-10-11T08:05:33.372Z,4.40
2022-10-11T08:06:33.293Z,4.60
2022-10-11T08:07:33.321Z,4.20
2022-10-11T08:08:33.262Z,4.00
2022-10-11T08:09:33.349Z,4.50
2022-10-11T08:10:33.263Z,4.30
2022-10-11T08:11:33.446Z,4.80
2022-10-11T08:12:33.251Z,4.80
2022-10-11T08:13:33.236Z,4.60
2022-10-11T08:14:33.215Z,5.00
2022-10-11T08:15:33.346Z,5.10
2022-10-11T08:16:33.195Z,4.30
2022-10-11T08:17:33.554Z,4.70
2022-10-11T08:18:33.135Z,4.70
2022-10-11T08:19:33.193Z,4.50
2022-10-11T08:20:33.344Z,4.70
2022-10-11T08:21:33.186Z,4.70
2022-10-11T08:22:33.069Z,4.90
2022-10-11T08:23:33.802Z,5.00
2022-10-11T08:24:38.184Z,4.70
2022-10-11T08:25:34.052Z,4.50
2022-10-11T08:26:33.303Z,4.80
2022-10-11T08:27:33.831Z,4.60
2022-10-11T08:28:33.538Z,5.00
2022-10-11T08:29:33.174Z,4.50
2022-10-11T08:30:33.656Z,4.30
2022-10-11T08:31:33.131Z,4.30
2022-10-11T08:32:33.123Z,4.50
2022-10-11T08:33:33.392Z,4.40
2022-10-11T08:34:32.986Z,4.60
2022-10-11T08:35:33.305Z,4.30
2022-10-11T08:36:33.142Z,4.70
2022-10-11T08:37:32.900Z,4.80
2022-10-11T08:38:32.985Z,4.00
2022-10-11T08:39:32.942Z,4.50
2022-10-11T08:40:36.550Z,4.40
2022-10-11T08:41:43.252Z,4.70
2022-10-11T08:42:33.973Z,4.70
2022-10-11T08:43:33.402Z,4.30
2022-10-11T08:44:51.896Z,4.10
2022-10-11T08:45:33.862Z,4.40
2022-10-11T08:46:32.771Z,4.30
2022-10-11T08:47:32.982Z,4.50
2022-10-11T08:48:32.897Z,4.30
2022-10-11T08:49:32.743Z,4.30
2022-10-11T08:50:33.092Z,4.20
2022-10-11T08:52:12.353Z,4.40
2022-10-11T08:52:33.735Z,4.50
2022-10-11T08:53:32.687Z,4.40
2022-10-11T08:54:33.513Z,4.40
2022-10-11T08:55:34.123Z,4.40
2022-10-11T08:56:41.405Z,4.50
2022-10-11T08:57:33.755Z,4.50
2022-10-11T08:58:34.832Z,4.50
2022-10-11T08:59:32.753Z,4.90
2022-10-11T09:00:32.632Z,4.40
2022-10-11T09:01:33.245Z,4.50
2022-10-11T09:02:55.634Z,4.40
2022-10-11T09:03:36.120Z,4.40
2022-10-11T09:04:44.164Z,5.00
2022-10-11T09:05:45.482Z,4.00
2022-10-11T09:08:24.412Z,4.90
2022-10-11T09:09:20.671Z,4.80
2022-10-11T09:09:42.188Z,4.50
2022-10-11T09:10:44.243Z,4.30
2022-10-11T09:11:45.428Z,4.10
2022-10-11T09:12:41.826Z,4.40
2022-10-11T09:13:42.318Z,4.30
2022-10-11T09:14:45.360Z,4.30
2022-10-11T09:15:51.380Z,4.40
2022-10-11T09:16:41.558Z,4.80
2022-10-11T09:17:45.846Z,4.10
2022-10-11T09:18:47.920Z,4.80
2022-10-11T09:19:49.988Z,4.50
2022-10-11T09:21:18.324Z,4.40
2022-10-11T09:21:46.127Z,4.30
2022-10-11T09:22:42.048Z,4.70
2022-10-11T09:23:43.705Z,4.70
2022-10-11T09:24:43.512Z,4.80
2022-10-11T09:25:42.079Z,4.50
2022-10-11T09:26:40.758Z,3.90
2022-10-11T09:28:02.452Z,4.40
2022-10-11T09:28:46.271Z,4.20
2022-10-11T09:29:44.782Z,4.80
2022-10-11T09:30:43.808Z,5.00
2022-10-11T09:33:17.684Z,4.40
2022-10-11T09:34:12.698Z,4.50
2022-10-11T09:35:05.934Z,5.00
2022-10-11T09:36:07.508Z,5.10
2022-10-11T09:36:59.355Z,4.50
2022-10-11T09:38:00.206Z,4.80
2022-10-11T09:39:07.662Z,4.30
2022-10-11T09:40:23.744Z,4.90
2022-10-11T09:40:59.052Z,4.50
2022-10-11T09:41:58.997Z,4.50
2022-10-11T09:43:12.197Z,4.70
2022-10-11T09:44:02.847Z,4.20
2022-10-11T09:45:14.145Z,4.90
2022-10-11T09:46:02.528Z,4.60
2022-10-11T09:47:02.155Z,4.50
2022-10-11T09:48:06.651Z,4.40
2022-10-11T09:49:06.926Z,4.70
2022-10-11T09:49:59.738Z,4.70
2022-10-11T09:50:59.193Z,5.40
2022-10-11T09:51:59.246Z,4.40
2022-10-11T09:52:59.195Z,4.10
2022-10-11T09:54:07.696Z,5.00
2022-10-11T09:54:58.928Z,5.00
2022-10-11T09:55:59.869Z,5.10
2022-10-11T09:56:59.056Z,4.90
2022-10-11T09:58:01.146Z,4.70
2022-10-11T09:58:59.224Z,4.90
2022-10-11T09:59:59.128Z,5.20
2022-10-11T10:00:58.652Z,4.50
2022-10-11T10:01:59.565Z,4.60
2022-10-11T10:02:58.649Z,4.60
2022-10-11T10:03:59.244Z,4.50
2022-10-11T10:04:59.226Z,5.00
2022-10-11T10:05:59.327Z,5.10
2022-10-11T10:06:59.046Z,4.90
2022-10-11T10:08:04.798Z,4.80
2022-10-11T10:08:58.964Z,4.60
2022-10-11T10:10:00.728Z,4.90
2022-10-11T10:11:07.913Z,4.60
2022-10-11T10:11:58.576Z,4.50
2022-10-11T10:13:07.048Z,4.10
2022-10-11T10:14:08.468Z,4.90
2022-10-11T10:14:58.909Z,4.40
2022-10-11T10:16:00.036Z,4.20
2022-10-11T10:17:04.468Z,4.30
2022-10-11T10:17:58.844Z,4.30
2022-10-11T10:18:59.249Z,4.50
2022-10-11T10:19:58.627Z,4.30
2022-10-11T10:20:58.944Z,4.40
2022-10-11T10:21:58.408Z,5.10
2022-10-11T10:22:58.706Z,4.60
2022-10-11T10:23:58.965Z,4.00
2022-10-11T10:24:59.919Z,4.20
2022-10-11T10:25:59.228Z,4.00
2022-10-11T10:26:58.398Z,4.30
2022-10-11T10:27:58.504Z,4.30
2022-10-11T10:28:58.482Z,4.50
2022-10-11T10:30:06.511Z,4.40
2022-10-11T10:31:02.690Z,4.00
2022-10-11T10:32:13.795Z,4.00
2022-10-11T10:32:59.231Z,4.60
2022-10-11T10:33:58.439Z,3.90
2022-10-11T10:34:58.389Z,4.50
2022-10-11T10:35:59.420Z,4.00
2022-10-11T10:36:58.270Z,4.30
2022-10-11T10:37:59.716Z,3.90
2022-10-11T10:38:58.289Z,4.10
2022-10-11T10:39:58.178Z,4.10
2022-10-11T10:40:58.166Z,3.90
2022-10-11T10:41:58.198Z,4.20
2022-10-11T10:42:58.101Z,3.80
2022-10-11T10:43:58.180Z,4.00
2022-10-11T10:44:58.108Z,3.50
2022-10-11T10:46:00.301Z,3.30
2022-10-11T10:46:58.079Z,2.90
2022-10-11T10:47:58.840Z,3.30
2022-10-11T10:49:59.858Z,4.00
2022-10-11T10:50:57.971Z,3.50
2022-10-11T10:51:58.061Z,3.90
2022-10-11T10:52:58.821Z,4.40
2022-10-11T10:53:58.083Z,4.10
2022-10-11T10:55:02.743Z,4.00
2022-10-11T10:56:00.711Z,3.70
2022-10-11T10:56:58.162Z,3.80
2022-10-11T10:58:01.583Z,3.30
2022-10-11T10:58:58.032Z,3.70
2022-10-11T11:00:00.034Z,4.10
2022-10-11T11:00:57.862Z,4.10
2022-10-11T11:02:06.753Z,3.60
2022-10-11T11:02:58.924Z,3.30
2022-10-11T11:03:57.872Z,3.50
2022-10-11T11:05:00.814Z,3.70
2022-10-11T11:05:57.843Z,3.80
2022-10-11T11:06:58.154Z,3.80
2022-10-11T11:07:57.818Z,3.50
2022-10-11T11:08:58.942Z,3.80
2022-10-11T11:09:57.812Z,3.70
2022-10-11T11:10:58.504Z,3.60
2022-10-11T11:12:02.176Z,3.00
2022-10-11T11:12:57.711Z,3.50
2022-10-11T11:13:57.753Z,3.70
2022-10-11T11:14:57.765Z,3.50
2022-10-11T11:15:57.876Z,3.10
2022-10-11T11:16:57.724Z,3.10
2022-10-11T11:17:57.972Z,3.50
2022-10-11T11:18:58.752Z,3.50
2022-10-11T11:19:57.949Z,3.40
2022-10-11T11:20:57.714Z,3.40
2022-10-11T11:21:57.786Z,3.50
2022-10-11T11:22:58.754Z,3.40
2022-10-11T11:23:58.045Z,3.50
2022-10-11T11:24:57.565Z,2.90
2022-10-11T11:25:57.715Z,3.30
2022-10-11T11:26:57.507Z,3.20
2022-10-11T11:27:57.610Z,3.40
2022-10-11T11:28:57.541Z,3.80
2022-10-11T11:29:57.755Z,3.20
2022-10-11T11:31:18.549Z,3.40
2022-10-11T11:32:18.516Z,3.60
2022-10-11T11:32:57.476Z,3.10
2022-10-11T11:33:57.675Z,3.00
2022-10-11T11:34:58.137Z,2.90
2022-10-11T11:35:58.395Z,3.40
2022-10-11T11:36:57.686Z,3.30
2022-10-11T11:38:02.528Z,3.40
2022-10-11T11:38:58.363Z,3.20
2022-10-11T11:39:57.396Z,2.70
2022-10-11T11:40:57.326Z,3.00
2022-10-11T11:41:57.407Z,3.30
2022-10-11T11:42:57.347Z,2.70
2022-10-11T11:43:57.445Z,3.10
2022-10-11T11:44:57.327Z,2.90
2022-10-11T11:45:57.366Z,2.60
2022-10-11T11:46:57.239Z,2.50
2022-10-11T11:47:57.679Z,2.40
2022-10-11T11:49:31.475Z,2.60
2022-10-11T11:49:57.299Z,2.50
2022-10-11T11:50:57.725Z,2.60
2022-10-11T11:51:57.167Z,2.60
2022-10-11T11:52:58.168Z,2.80
2022-10-11T11:53:57.159Z,2.30
2022-10-11T11:55:01.445Z,2.60
2022-10-11T11:56:00.408Z,2.30
2022-10-11T11:56:57.237Z,2.60
2022-10-11T11:57:57.378Z,2.00
2022-10-11T11:58:57.249Z,2.20
2022-10-11T11:59:57.059Z,2.10
2022-10-11T12:01:02.858Z,2.30
2022-10-11T12:01:57.981Z,2.10
2022-10-11T12:02:57.260Z,2.40
2022-10-11T12:03:57.856Z,2.70
2022-10-11T12:05:00.648Z,2.10
2022-10-11T12:05:57.231Z,2.20
2022-10-11T12:07:14.964Z,2.00
2022-10-11T12:07:58.200Z,2.50
2022-10-11T12:08:58.861Z,2.10
2022-10-11T12:10:00.260Z,2.10
2022-10-11T12:11:01.603Z,2.40
2022-10-11T12:11:58.991Z,2.80
2022-10-11T12:13:17.296Z,2.50
2022-10-11T12:14:05.021Z,2.20
2022-10-11T12:14:57.502Z,2.50
2022-10-11T12:15:57.402Z,2.10
2022-10-11T12:16:58.814Z,2.50
2022-10-11T12:17:59.991Z,2.40
2022-10-11T12:19:12.083Z,2.30
2022-10-11T12:19:57.354Z,2.20
2022-10-11T12:20:57.174Z,2.10
2022-10-11T12:22:00.252Z,2.20
2022-10-11T12:22:57.701Z,2.20
2022-10-11T12:23:56.922Z,2.60
2022-10-11T12:24:56.906Z,2.40
2022-10-11T12:25:57.769Z,2.20
2022-10-11T12:26:57.403Z,2.00
2022-10-11T12:28:01.664Z,2.00
2022-10-11T12:28:56.815Z,1.90
2022-10-11T12:29:57.126Z,1.90
2022-10-11T12:30:56.954Z,1.90
2022-10-11T12:31:57.923Z,2.80
2022-10-11T12:32:56.747Z,1.90
2022-10-11T12:33:57.194Z,2.20
2022-10-11T12:34:58.653Z,2.00
2022-10-11T12:36:05.694Z,2.00
2022-10-11T12:37:03.209Z,2.20
2022-10-11T12:37:58.115Z,1.90
2022-10-11T12:38:57.382Z,1.80
2022-10-11T12:39:57.050Z,1.90
2022-10-11T12:40:56.715Z,2.10
2022-10-11T12:42:01.523Z,2.40
2022-10-11T12:43:04.483Z,2.50
2022-10-11T12:43:57.205Z,2.70
2022-10-11T12:44:56.577Z,2.50
2022-10-11T12:45:57.137Z,2.80
2022-10-11T12:47:07.426Z,2.10
2022-10-11T12:47:56.488Z,1.90
2022-10-11T12:48:56.667Z,1.90
2022-10-11T12:50:01.085Z,2.10
2022-10-11T12:51:00.754Z,2.20
2022-10-11T12:51:57.846Z,2.30
2022-10-11T12:52:56.514Z,2.90
2022-10-11T12:54:21.546Z,1.80
2022-10-11T12:54:57.725Z,2.00
2022-10-11T12:55:59.365Z,1.90
2022-10-11T12:56:56.581Z,1.90
2022-10-11T12:57:56.637Z,2.10
2022-10-11T12:58:57.547Z,2.00
2022-10-11T12:59:56.874Z,2.10
2022-10-11T13:00:58.894Z,2.30
2022-10-11T13:01:56.488Z,2.10
2022-10-11T13:03:17.802Z,2.10
2022-10-11T13:03:56.848Z,2.00
2022-10-11T13:04:56.818Z,2.20
2022-10-11T13:06:00.432Z,2.20
2022-10-11T13:06:57.286Z,2.00
2022-10-11T13:07:56.417Z,2.00
2022-10-11T13:08:56.149Z,2.30
2022-10-11T13:10:02.029Z,1.70
2022-10-11T13:10:56.098Z,2.40
2022-10-11T13:11:56.129Z,1.90
2022-10-11T13:12:56.129Z,1.80
2022-10-11T13:13:56.118Z,2.30
2022-10-11T13:14:56.058Z,2.20
2022-10-11T13:16:17.119Z,2.40
2022-10-11T13:16:56.058Z,2.20
2022-10-11T13:17:56.108Z,2.30
2022-10-11T13:18:56.574Z,2.00
2022-10-11T13:19:56.081Z,2.10
2022-10-11T13:20:55.961Z,1.80
2022-10-11T13:21:56.061Z,1.90
2022-10-11T13:22:55.923Z,1.80
2022-10-11T13:23:55.981Z,2.00